sensor_id;sensor_type;location;lat;lon;timestamp;P1;durP1;ratioP1;P2;durP2;ratioP2
7199;SDS011;3641;49.082;8.200;2024-03-23T00:56:14;15.15;;;8.30;;
7199;SDS011;3641;49.082;8.200;2024-03-23T00:58:41;15.50;;;8.85;;
7199;SDS011;3641;49.082;8.200;2024-03-23T01:01:07;13.45;;;8.45;;
7199;SDS011;3641;49.082;8.200;2024-03-23T01:03:33;12.75;;;8.40;;
7199;SDS011;3641;49.082;8.200;2024-03-23T01:05:59;14.70;;;8.73;;
7199;SDS011;3641;49.082;8.200;2024-03-23T01:08:26;12.30;;;7.82;;
7199;SDS011;3641;49.082;8.200;2024-03-23T01:10:55;11.07;;;8.30;;
7199;SDS011;3641;49.082;8.200;2024-03-23T01:13:22;17.00;;;8.93;;
7199;SDS011;3641;49.082;8.200;2024-03-23T01:15:48;11.57;;;7.88;;
7199;SDS011;3641;49.082;8.200;2024-03-23T01:18:16;15.23;;;8.55;;
7199;SDS011;3641;49.082;8.200;2024-03-23T01:20:41;12.98;;;7.88;;
7199;SDS011;3641;49.082;8.200;2024-03-23T01:23:08;13.30;;;8.27;;
7199;SDS011;3641;49.082;8.200;2024-03-23T01:25:33;13.93;;;9.25;;
7199;SDS011;3641;49.082;8.200;2024-03-23T01:27:59;11.35;;;7.28;;
7199;SDS011;3641;49.082;8.200;2024-03-23T01:30:26;13.52;;;7.40;;
7199;SDS011;3641;49.082;8.200;2024-03-23T01:32:52;15.77;;;8.15;;
7199;SDS011;3641;49.082;8.200;2024-03-23T01:35:18;12.00;;;7.28;;
7199;SDS011;3641;49.082;8.200;2024-03-23T01:37:45;14.20;;;6.82;;
7199;SDS011;3641;49.082;8.200;2024-03-23T01:40:11;10.20;;;6.95;;
7199;SDS011;3641;49.082;8.200;2024-03-23T01:42:38;16.70;;;6.68;;
7199;SDS011;3641;49.082;8.200;2024-03-23T01:45:04;13.98;;;6.72;;
7199;SDS011;3641;49.082;8.200;2024-03-23T01:47:36;9.70;;;5.43;;
7199;SDS011;3641;49.082;8.200;2024-03-23T01:50:01;9.65;;;6.03;;
7199;SDS011;3641;49.082;8.200;2024-03-23T01:52:28;12.00;;;6.32;;
7199;SDS011;3641;49.082;8.200;2024-03-23T01:54:54;12.07;;;6.45;;
7199;SDS011;3641;49.082;8.200;2024-03-23T01:57:20;10.93;;;6.43;;
7199;SDS011;3641;49.082;8.200;2024-03-23T01:59:46;10.85;;;6.65;;
7199;SDS011;3641;49.082;8.200;2024-03-23T02:02:14;10.57;;;6.40;;
7199;SDS011;3641;49.082;8.200;2024-03-23T02:04:44;10.13;;;6.78;;
7199;SDS011;3641;49.082;8.200;2024-03-23T02:07:10;11.05;;;6.88;;
7199;SDS011;3641;49.082;8.200;2024-03-23T02:09:35;14.57;;;6.40;;
7199;SDS011;3641;49.082;8.200;2024-03-23T02:12:02;12.32;;;6.28;;
7199;SDS011;3641;49.082;8.200;2024-03-23T02:14:28;8.18;;;5.97;;
7199;SDS011;3641;49.082;8.200;2024-03-23T02:16:54;10.65;;;6.03;;
7199;SDS011;3641;49.082;8.200;2024-03-23T02:19:20;10.18;;;5.90;;
7199;SDS011;3641;49.082;8.200;2024-03-23T02:21:48;12.75;;;6.65;;
7199;SDS011;3641;49.082;8.200;2024-03-23T02:24:14;10.75;;;6.47;;
7199;SDS011;3641;49.082;8.200;2024-03-23T02:26:41;11.75;;;5.88;;
7199;SDS011;3641;49.082;8.200;2024-03-23T02:29:06;12.02;;;7.22;;
7199;SDS011;3641;49.082;8.200;2024-03-23T02:31:34;11.75;;;5.97;;
7199;SDS011;3641;49.082;8.200;2024-03-23T02:33:59;11.77;;;6.20;;
7199;SDS011;3641;49.082;8.200;2024-03-23T02:36:26;9.95;;;6.05;;
7199;SDS011;3641;49.082;8.200;2024-03-23T02:38:51;9.32;;;6.55;;
7199;SDS011;3641;49.082;8.200;2024-03-23T02:41:19;11.63;;;6.55;;
7199;SDS011;3641;49.082;8.200;2024-03-23T02:43:48;10.25;;;5.78;;
7199;SDS011;3641;49.082;8.200;2024-03-23T02:46:14;10.80;;;6.05;;
7199;SDS011;3641;49.082;8.200;2024-03-23T02:48:40;12.95;;;7.00;;
7199;SDS011;3641;49.082;8.200;2024-03-23T02:51:06;12.35;;;7.00;;
7199;SDS011;3641;49.082;8.200;2024-03-23T02:53:32;11.00;;;6.80;;
7199;SDS011;3641;49.082;8.200;2024-03-23T02:55:58;13.85;;;7.40;;
7199;SDS011;3641;49.082;8.200;2024-03-23T02:58:26;12.05;;;6.97;;
7199;SDS011;3641;49.082;8.200;2024-03-23T03:00:52;13.55;;;7.25;;
7199;SDS011;3641;49.082;8.200;2024-03-23T03:03:18;12.32;;;8.02;;
7199;SDS011;3641;49.082;8.200;2024-03-23T03:05:43;12.50;;;7.70;;
7199;SDS011;3641;49.082;8.200;2024-03-23T03:08:10;14.77;;;7.88;;
7199;SDS011;3641;49.082;8.200;2024-03-23T03:10:35;11.00;;;7.65;;
7199;SDS011;3641;49.082;8.200;2024-03-23T03:13:02;14.45;;;7.80;;
7199;SDS011;3641;49.082;8.200;2024-03-23T03:15:29;13.88;;;7.72;;
7199;SDS011;3641;49.082;8.200;2024-03-23T03:17:55;11.70;;;7.72;;
7199;SDS011;3641;49.082;8.200;2024-03-23T03:20:21;13.73;;;8.07;;
7199;SDS011;3641;49.082;8.200;2024-03-23T03:22:48;13.85;;;7.95;;
7199;SDS011;3641;49.082;8.200;2024-03-23T03:25:14;12.48;;;8.15;;
7199;SDS011;3641;49.082;8.200;2024-03-23T03:27:40;12.18;;;7.65;;
7199;SDS011;3641;49.082;8.200;2024-03-23T03:30:06;14.95;;;8.23;;
7199;SDS011;3641;49.082;8.200;2024-03-23T03:32:35;14.80;;;8.25;;
7199;SDS011;3641;49.082;8.200;2024-03-23T03:35:00;14.85;;;8.90;;
7199;SDS011;3641;49.082;8.200;2024-03-23T03:37:27;16.42;;;8.93;;
7199;SDS011;3641;49.082;8.200;2024-03-23T03:39:52;15.80;;;8.82;;
7199;SDS011;3641;49.082;8.200;2024-03-23T03:42:19;15.60;;;8.80;;
7199;SDS011;3641;49.082;8.200;2024-03-23T03:44:44;17.02;;;9.48;;
7199;SDS011;3641;49.082;8.200;2024-03-23T03:47:11;16.20;;;9.10;;
7199;SDS011;3641;49.082;8.200;2024-03-23T03:49:37;17.65;;;10.40;;
7199;SDS011;3641;49.082;8.200;2024-03-23T03:52:04;16.45;;;9.38;;
7199;SDS011;3641;49.082;8.200;2024-03-23T03:54:30;18.85;;;10.43;;
7199;SDS011;3641;49.082;8.200;2024-03-23T03:56:56;18.45;;;10.98;;
7199;SDS011;3641;49.082;8.200;2024-03-23T03:59:21;19.13;;;10.98;;
7199;SDS011;3641;49.082;8.200;2024-03-23T04:01:48;17.33;;;10.63;;
7199;SDS011;3641;49.082;8.200;2024-03-23T04:04:13;17.50;;;9.73;;
7199;SDS011;3641;49.082;8.200;2024-03-23T04:06:42;16.25;;;9.90;;
7199;SDS011;3641;49.082;8.200;2024-03-23T04:09:08;19.13;;;10.45;;
7199;SDS011;3641;49.082;8.200;2024-03-23T04:11:35;16.95;;;9.68;;
7199;SDS011;3641;49.082;8.200;2024-03-23T04:14:00;17.27;;;9.65;;
7199;SDS011;3641;49.082;8.200;2024-03-23T04:16:27;18.38;;;9.60;;
7199;SDS011;3641;49.082;8.200;2024-03-23T04:18:53;16.13;;;10.02;;
7199;SDS011;3641;49.082;8.200;2024-03-23T04:21:20;14.18;;;8.40;;
7199;SDS011;3641;49.082;8.200;2024-03-23T04:23:46;17.50;;;9.70;;
7199;SDS011;3641;49.082;8.200;2024-03-23T04:26:13;15.32;;;8.75;;
7199;SDS011;3641;49.082;8.200;2024-03-23T04:28:39;12.52;;;7.65;;
7199;SDS011;3641;49.082;8.200;2024-03-23T04:31:05;15.35;;;8.27;;
7199;SDS011;3641;49.082;8.200;2024-03-23T04:33:31;14.70;;;8.65;;
7199;SDS011;3641;49.082;8.200;2024-03-23T04:35:57;12.32;;;6.97;;
7199;SDS011;3641;49.082;8.200;2024-03-23T04:38:22;10.75;;;6.40;;
7199;SDS011;3641;49.082;8.200;2024-03-23T04:40:54;10.40;;;6.07;;
7199;SDS011;3641;49.082;8.200;2024-03-23T04:43:21;9.38;;;4.78;;
7199;SDS011;3641;49.082;8.200;2024-03-23T04:45:48;8.43;;;4.18;;
7199;SDS011;3641;49.082;8.200;2024-03-23T04:48:14;11.60;;;4.30;;
7199;SDS011;3641;49.082;8.200;2024-03-23T04:50:41;6.95;;;2.92;;
7199;SDS011;3641;49.082;8.200;2024-03-23T04:53:07;4.78;;;2.60;;
7199;SDS011;3641;49.082;8.200;2024-03-23T04:55:34;4.20;;;2.42;;
7199;SDS011;3641;49.082;8.200;2024-03-23T04:58:01;5.40;;;2.60;;
7199;SDS011;3641;49.082;8.200;2024-03-23T05:00:28;5.97;;;2.08;;
7199;SDS011;3641;49.082;8.200;2024-03-23T05:02:54;5.20;;;2.70;;
7199;SDS011;3641;49.082;8.200;2024-03-23T05:05:20;5.93;;;2.65;;
7199;SDS011;3641;49.082;8.200;2024-03-23T05:07:46;5.10;;;1.98;;
7199;SDS011;3641;49.082;8.200;2024-03-23T05:10:12;6.53;;;2.35;;
7199;SDS011;3641;49.082;8.200;2024-03-23T05:12:38;4.35;;;2.40;;
7199;SDS011;3641;49.082;8.200;2024-03-23T05:15:07;3.15;;;1.75;;
7199;SDS011;3641;49.082;8.200;2024-03-23T05:17:32;4.63;;;2.00;;
7199;SDS011;3641;49.082;8.200;2024-03-23T05:19:59;3.58;;;2.13;;
7199;SDS011;3641;49.082;8.200;2024-03-23T05:22:25;4.90;;;2.30;;
7199;SDS011;3641;49.082;8.200;2024-03-23T05:24:52;4.07;;;2.10;;
7199;SDS011;3641;49.082;8.200;2024-03-23T05:27:17;3.10;;;1.48;;
7199;SDS011;3641;49.082;8.200;2024-03-23T05:29:44;3.47;;;1.65;;
7199;SDS011;3641;49.082;8.200;2024-03-23T05:32:10;3.10;;;1.58;;
7199;SDS011;3641;49.082;8.200;2024-03-23T05:34:37;4.60;;;1.50;;
7199;SDS011;3641;49.082;8.200;2024-03-23T05:37:02;3.35;;;1.50;;
7199;SDS011;3641;49.082;8.200;2024-03-23T05:39:29;3.08;;;1.20;;
7199;SDS011;3641;49.082;8.200;2024-03-23T05:41:55;2.25;;;1.33;;
7199;SDS011;3641;49.082;8.200;2024-03-23T05:44:21;1.40;;;1.08;;
7199;SDS011;3641;49.082;8.200;2024-03-23T05:46:46;2.20;;;1.33;;
7199;SDS011;3641;49.082;8.200;2024-03-23T05:49:15;2.22;;;1.10;;
7199;SDS011;3641;49.082;8.200;2024-03-23T05:51:41;1.77;;;1.20;;
7199;SDS011;3641;49.082;8.200;2024-03-23T05:54:07;2.72;;;1.10;;
7199;SDS011;3641;49.082;8.200;2024-03-23T05:56:33;2.60;;;1.15;;
7199;SDS011;3641;49.082;8.200;2024-03-23T05:58:59;1.65;;;1.17;;
7199;SDS011;3641;49.082;8.200;2024-03-23T06:01:24;1.25;;;0.95;;
7199;SDS011;3641;49.082;8.200;2024-03-23T06:03:53;1.58;;;1.17;;
7199;SDS011;3641;49.082;8.200;2024-03-23T06:06:20;1.90;;;1.20;;
7199;SDS011;3641;49.082;8.200;2024-03-23T06:08:47;1.40;;;0.98;;
7199;SDS011;3641;49.082;8.200;2024-03-23T06:11:12;1.90;;;1.20;;
7199;SDS011;3641;49.082;8.200;2024-03-23T06:13:38;2.53;;;1.17;;
7199;SDS011;3641;49.082;8.200;2024-03-23T06:16:04;1.42;;;1.10;;
7199;SDS011;3641;49.082;8.200;2024-03-23T06:18:32;1.90;;;1.30;;
7199;SDS011;3641;49.082;8.200;2024-03-23T06:20:57;2.55;;;1.38;;
7199;SDS011;3641;49.082;8.200;2024-03-23T06:23:25;2.40;;;1.35;;
7199;SDS011;3641;49.082;8.200;2024-03-23T06:25:51;2.63;;;1.55;;
7199;SDS011;3641;49.082;8.200;2024-03-23T06:28:17;1.65;;;1.08;;
7199;SDS011;3641;49.082;8.200;2024-03-23T06:30:43;2.60;;;1.00;;
7199;SDS011;3641;49.082;8.200;2024-03-23T06:33:09;1.65;;;0.77;;
7199;SDS011;3641;49.082;8.200;2024-03-23T06:35:35;0.88;;;0.60;;
7199;SDS011;3641;49.082;8.200;2024-03-23T06:38:01;0.80;;;0.50;;
7199;SDS011;3641;49.082;8.200;2024-03-23T06:40:28;0.50;;;0.40;;
7199;SDS011;3641;49.082;8.200;2024-03-23T06:42:54;0.77;;;0.40;;
7199;SDS011;3641;49.082;8.200;2024-03-23T06:45:20;0.57;;;0.40;;
7199;SDS011;3641;49.082;8.200;2024-03-23T06:47:48;0.30;;;0.30;;
7199;SDS011;3641;49.082;8.200;2024-03-23T06:50:13;0.38;;;0.38;;
7199;SDS011;3641;49.082;8.200;2024-03-23T06:52:40;2.05;;;0.50;;
7199;SDS011;3641;49.082;8.200;2024-03-23T06:55:06;0.95;;;0.50;;
7199;SDS011;3641;49.082;8.200;2024-03-23T06:57:34;1.70;;;0.70;;
7199;SDS011;3641;49.082;8.200;2024-03-23T06:59:59;1.20;;;0.73;;
7199;SDS011;3641;49.082;8.200;2024-03-23T07:02:26;1.27;;;0.57;;
7199;SDS011;3641;49.082;8.200;2024-03-23T07:04:51;1.65;;;0.30;;
7199;SDS011;3641;49.082;8.200;2024-03-23T07:07:18;0.50;;;0.32;;
7199;SDS011;3641;49.082;8.200;2024-03-23T07:09:43;0.70;;;0.43;;
7199;SDS011;3641;49.082;8.200;2024-03-23T07:12:10;0.77;;;0.60;;
7199;SDS011;3641;49.082;8.200;2024-03-23T07:14:36;0.95;;;0.50;;
7199;SDS011;3641;49.082;8.200;2024-03-23T07:17:03;1.33;;;0.60;;
7199;SDS011;3641;49.082;8.200;2024-03-23T07:19:28;1.85;;;0.50;;
7199;SDS011;3641;49.082;8.200;2024-03-23T07:21:55;1.98;;;0.63;;
7199;SDS011;3641;49.082;8.200;2024-03-23T07:24:20;0.60;;;0.50;;
7199;SDS011;3641;49.082;8.200;2024-03-23T07:26:47;3.00;;;0.20;;
7199;SDS011;3641;49.082;8.200;2024-03-23T07:29:12;2.42;;;0.30;;
7199;SDS011;3641;49.082;8.200;2024-03-23T07:31:40;0.77;;;0.50;;
7199;SDS011;3641;49.082;8.200;2024-03-23T07:34:06;0.40;;;0.30;;
7199;SDS011;3641;49.082;8.200;2024-03-23T07:36:33;0.45;;;0.32;;
7199;SDS011;3641;49.082;8.200;2024-03-23T07:38:58;2.83;;;0.55;;
7199;SDS011;3641;49.082;8.200;2024-03-23T07:41:24;1.15;;;0.50;;
7199;SDS011;3641;49.082;8.200;2024-03-23T07:43:50;1.60;;;0.50;;
7199;SDS011;3641;49.082;8.200;2024-03-23T07:46:17;6.00;;;1.17;;
7199;SDS011;3641;49.082;8.200;2024-03-23T07:48:45;5.03;;;1.40;;
7199;SDS011;3641;49.082;8.200;2024-03-23T07:51:15;7.38;;;1.75;;
7199;SDS011;3641;49.082;8.200;2024-03-23T07:53:42;9.40;;;1.73;;
7199;SDS011;3641;49.082;8.200;2024-03-23T07:56:09;9.02;;;2.42;;
7199;SDS011;3641;49.082;8.200;2024-03-23T07:58:35;6.40;;;1.90;;
7199;SDS011;3641;49.082;8.200;2024-03-23T08:01:06;5.88;;;1.65;;
7199;SDS011;3641;49.082;8.200;2024-03-23T08:03:33;7.82;;;1.70;;
7199;SDS011;3641;49.082;8.200;2024-03-23T08:06:07;6.18;;;1.95;;
7199;SDS011;3641;49.082;8.200;2024-03-23T08:08:34;5.25;;;2.10;;
7199;SDS011;3641;49.082;8.200;2024-03-23T08:11:00;6.28;;;2.20;;
7199;SDS011;3641;49.082;8.200;2024-03-23T08:13:26;7.28;;;2.05;;
7199;SDS011;3641;49.082;8.200;2024-03-23T08:15:55;12.52;;;3.00;;
7199;SDS011;3641;49.082;8.200;2024-03-23T08:18:22;11.18;;;2.97;;
7199;SDS011;3641;49.082;8.200;2024-03-23T08:20:54;10.23;;;2.83;;
7199;SDS011;3641;49.082;8.200;2024-03-23T08:23:23;12.05;;;3.03;;
7199;SDS011;3641;49.082;8.200;2024-03-23T08:25:48;12.57;;;2.75;;
7199;SDS011;3641;49.082;8.200;2024-03-23T08:28:15;8.18;;;2.53;;
7199;SDS011;3641;49.082;8.200;2024-03-23T08:30:40;9.10;;;2.80;;
7199;SDS011;3641;49.082;8.200;2024-03-23T08:33:07;9.52;;;2.80;;
7199;SDS011;3641;49.082;8.200;2024-03-23T08:35:32;8.40;;;2.38;;
7199;SDS011;3641;49.082;8.200;2024-03-23T08:37:59;6.35;;;2.60;;
7199;SDS011;3641;49.082;8.200;2024-03-23T08:40:26;12.38;;;3.38;;
7199;SDS011;3641;49.082;8.200;2024-03-23T08:42:53;10.15;;;3.45;;
7199;SDS011;3641;49.082;8.200;2024-03-23T08:45:18;8.73;;;3.88;;
7199;SDS011;3641;49.082;8.200;2024-03-23T08:47:45;9.43;;;3.17;;
7199;SDS011;3641;49.082;8.200;2024-03-23T08:50:10;12.38;;;3.55;;
7199;SDS011;3641;49.082;8.200;2024-03-23T08:52:36;8.30;;;2.92;;
7199;SDS011;3641;49.082;8.200;2024-03-23T08:55:02;11.25;;;2.90;;
7199;SDS011;3641;49.082;8.200;2024-03-23T08:57:30;7.95;;;3.17;;
7199;SDS011;3641;49.082;8.200;2024-03-23T08:59:56;6.22;;;2.67;;
7199;SDS011;3641;49.082;8.200;2024-03-23T09:02:22;10.10;;;3.40;;
7199;SDS011;3641;49.082;8.200;2024-03-23T09:04:47;9.95;;;3.00;;
7199;SDS011;3641;49.082;8.200;2024-03-23T09:07:14;11.02;;;3.08;;
7199;SDS011;3641;49.082;8.200;2024-03-23T09:09:39;13.80;;;3.50;;
7199;SDS011;3641;49.082;8.200;2024-03-23T09:12:06;11.38;;;3.70;;
7199;SDS011;3641;49.082;8.200;2024-03-23T09:14:34;8.95;;;2.40;;
7199;SDS011;3641;49.082;8.200;2024-03-23T09:17:00;7.78;;;2.60;;
7199;SDS011;3641;49.082;8.200;2024-03-23T09:19:26;8.25;;;2.63;;
7199;SDS011;3641;49.082;8.200;2024-03-23T09:21:54;9.50;;;2.65;;
7199;SDS011;3641;49.082;8.200;2024-03-23T09:24:19;9.32;;;2.70;;
7199;SDS011;3641;49.082;8.200;2024-03-23T09:26:46;12.43;;;3.22;;
7199;SDS011;3641;49.082;8.200;2024-03-23T09:29:11;11.80;;;3.20;;
7199;SDS011;3641;49.082;8.200;2024-03-23T09:31:39;9.80;;;2.70;;
7199;SDS011;3641;49.082;8.200;2024-03-23T09:34:05;10.52;;;2.95;;
7199;SDS011;3641;49.082;8.200;2024-03-23T09:36:32;11.30;;;3.63;;
7199;SDS011;3641;49.082;8.200;2024-03-23T09:38:57;8.95;;;3.22;;
7199;SDS011;3641;49.082;8.200;2024-03-23T09:41:24;7.97;;;2.85;;
7199;SDS011;3641;49.082;8.200;2024-03-23T09:43:51;9.85;;;3.40;;
7199;SDS011;3641;49.082;8.200;2024-03-23T09:46:18;13.02;;;3.35;;
7199;SDS011;3641;49.082;8.200;2024-03-23T09:48:46;9.43;;;3.90;;
7199;SDS011;3641;49.082;8.200;2024-03-23T09:51:13;15.20;;;4.35;;
7199;SDS011;3641;49.082;8.200;2024-03-23T09:53:39;10.43;;;4.10;;
7199;SDS011;3641;49.082;8.200;2024-03-23T09:56:07;13.05;;;4.35;;
7199;SDS011;3641;49.082;8.200;2024-03-23T09:58:33;9.60;;;4.00;;
7199;SDS011;3641;49.082;8.200;2024-03-23T10:00:59;8.05;;;3.75;;
7199;SDS011;3641;49.082;8.200;2024-03-23T10:03:25;8.65;;;3.67;;
7199;SDS011;3641;49.082;8.200;2024-03-23T10:06:01;10.85;;;4.53;;
7199;SDS011;3641;49.082;8.200;2024-03-23T10:08:28;8.50;;;3.45;;
7199;SDS011;3641;49.082;8.200;2024-03-23T10:10:55;8.27;;;3.60;;
7199;SDS011;3641;49.082;8.200;2024-03-23T10:13:24;9.27;;;3.70;;
7199;SDS011;3641;49.082;8.200;2024-03-23T10:15:57;10.10;;;3.72;;
7199;SDS011;3641;49.082;8.200;2024-03-23T10:18:24;8.52;;;3.08;;
7199;SDS011;3641;49.082;8.200;2024-03-23T10:20:51;6.93;;;3.28;;
7199;SDS011;3641;49.082;8.200;2024-03-23T10:23:32;9.35;;;3.20;;
7199;SDS011;3641;49.082;8.200;2024-03-23T10:26:04;8.93;;;3.50;;
7199;SDS011;3641;49.082;8.200;2024-03-23T10:28:37;7.20;;;3.03;;
7199;SDS011;3641;49.082;8.200;2024-03-23T10:31:17;6.72;;;3.15;;
7199;SDS011;3641;49.082;8.200;2024-03-23T10:33:44;10.88;;;3.30;;
7199;SDS011;3641;49.082;8.200;2024-03-23T10:36:13;8.52;;;2.88;;
7199;SDS011;3641;49.082;8.200;2024-03-23T10:38:40;6.25;;;2.70;;
7199;SDS011;3641;49.082;8.200;2024-03-23T10:41:08;10.77;;;3.00;;
7199;SDS011;3641;49.082;8.200;2024-03-23T10:43:34;6.75;;;2.63;;
7199;SDS011;3641;49.082;8.200;2024-03-23T10:46:02;7.10;;;2.13;;
7199;SDS011;3641;49.082;8.200;2024-03-23T10:48:28;5.72;;;1.70;;
7199;SDS011;3641;49.082;8.200;2024-03-23T10:50:55;6.97;;;1.75;;
7199;SDS011;3641;49.082;8.200;2024-03-23T10:53:21;8.75;;;1.90;;
7199;SDS011;3641;49.082;8.200;2024-03-23T10:55:52;10.27;;;1.75;;
7199;SDS011;3641;49.082;8.200;2024-03-23T10:58:20;10.15;;;1.95;;
7199;SDS011;3641;49.082;8.200;2024-03-23T11:00:50;8.38;;;1.73;;
7199;SDS011;3641;49.082;8.200;2024-03-23T11:03:34;6.38;;;1.50;;
7199;SDS011;3641;49.082;8.200;2024-03-23T11:06:02;10.00;;;2.05;;
7199;SDS011;3641;49.082;8.200;2024-03-23T11:08:35;10.10;;;1.98;;
7199;SDS011;3641;49.082;8.200;2024-03-23T11:11:13;7.05;;;1.77;;
7199;SDS011;3641;49.082;8.200;2024-03-23T11:13:50;7.45;;;1.90;;
7199;SDS011;3641;49.082;8.200;2024-03-23T11:16:17;5.22;;;1.40;;
7199;SDS011;3641;49.082;8.200;2024-03-23T11:18:47;4.63;;;1.50;;
7199;SDS011;3641;49.082;8.200;2024-03-23T11:24:13;5.63;;;1.92;;
7199;SDS011;3641;49.082;8.200;2024-03-23T11:26:41;9.00;;;1.80;;
7199;SDS011;3641;49.082;8.200;2024-03-23T11:29:09;8.88;;;1.75;;
7199;SDS011;3641;49.082;8.200;2024-03-23T11:31:36;10.70;;;1.98;;
7199;SDS011;3641;49.082;8.200;2024-03-23T11:34:02;6.47;;;1.73;;
7199;SDS011;3641;49.082;8.200;2024-03-23T11:36:30;9.80;;;1.70;;
7199;SDS011;3641;49.082;8.200;2024-03-23T11:38:55;8.45;;;1.95;;
7199;SDS011;3641;49.082;8.200;2024-03-23T11:41:22;8.23;;;1.70;;
7199;SDS011;3641;49.082;8.200;2024-03-23T11:43:49;6.40;;;2.13;;
7199;SDS011;3641;49.082;8.200;2024-03-23T11:46:21;10.52;;;1.90;;
7199;SDS011;3641;49.082;8.200;2024-03-23T11:48:49;9.23;;;2.05;;
7199;SDS011;3641;49.082;8.200;2024-03-23T11:51:16;8.40;;;2.00;;
7199;SDS011;3641;49.082;8.200;2024-03-23T11:53:42;7.05;;;1.80;;
7199;SDS011;3641;49.082;8.200;2024-03-23T11:56:08;7.75;;;1.80;;
7199;SDS011;3641;49.082;8.200;2024-03-23T11:58:34;8.10;;;2.00;;
7199;SDS011;3641;49.082;8.200;2024-03-23T12:01:02;5.25;;;1.63;;
7199;SDS011;3641;49.082;8.200;2024-03-23T12:03:29;6.72;;;1.60;;
7199;SDS011;3641;49.082;8.200;2024-03-23T12:05:58;7.00;;;1.77;;
7199;SDS011;3641;49.082;8.200;2024-03-23T12:08:24;5.95;;;1.70;;
7199;SDS011;3641;49.082;8.200;2024-03-23T12:11:04;6.60;;;2.15;;
7199;SDS011;3641;49.082;8.200;2024-03-23T12:13:30;6.75;;;2.33;;
7199;SDS011;3641;49.082;8.200;2024-03-23T12:16:08;5.95;;;1.90;;
7199;SDS011;3641;49.082;8.200;2024-03-23T12:18:36;6.07;;;1.70;;
7199;SDS011;3641;49.082;8.200;2024-03-23T12:21:02;5.85;;;2.00;;
7199;SDS011;3641;49.082;8.200;2024-03-23T12:23:28;5.97;;;1.60;;
7199;SDS011;3641;49.082;8.200;2024-03-23T12:25:54;6.72;;;1.40;;
7199;SDS011;3641;49.082;8.200;2024-03-23T12:28:20;10.70;;;1.83;;
7199;SDS011;3641;49.082;8.200;2024-03-23T12:30:46;7.65;;;1.35;;
7199;SDS011;3641;49.082;8.200;2024-03-23T12:33:13;6.38;;;1.70;;
7199;SDS011;3641;49.082;8.200;2024-03-23T12:35:40;6.10;;;1.50;;
7199;SDS011;3641;49.082;8.200;2024-03-23T12:38:05;10.50;;;1.77;;
7199;SDS011;3641;49.082;8.200;2024-03-23T12:40:32;3.83;;;1.00;;
7199;SDS011;3641;49.082;8.200;2024-03-23T12:42:57;6.88;;;0.82;;
7199;SDS011;3641;49.082;8.200;2024-03-23T12:45:24;3.33;;;1.15;;
7199;SDS011;3641;49.082;8.200;2024-03-23T12:47:49;4.20;;;0.90;;
7199;SDS011;3641;49.082;8.200;2024-03-23T12:50:18;3.25;;;0.70;;
7199;SDS011;3641;49.082;8.200;2024-03-23T12:52:44;4.55;;;0.60;;
7199;SDS011;3641;49.082;8.200;2024-03-23T12:55:10;2.83;;;0.77;;
7199;SDS011;3641;49.082;8.200;2024-03-23T12:57:36;2.63;;;0.63;;
7199;SDS011;3641;49.082;8.200;2024-03-23T13:00:03;3.72;;;0.70;;
7199;SDS011;3641;49.082;8.200;2024-03-23T13:02:29;2.78;;;0.80;;
7199;SDS011;3641;49.082;8.200;2024-03-23T13:04:56;3.60;;;0.60;;
7199;SDS011;3641;49.082;8.200;2024-03-23T13:07:23;1.98;;;0.75;;
7199;SDS011;3641;49.082;8.200;2024-03-23T13:09:50;7.50;;;0.95;;
7199;SDS011;3641;49.082;8.200;2024-03-23T13:12:15;3.88;;;0.73;;
7199;SDS011;3641;49.082;8.200;2024-03-23T13:14:43;2.35;;;0.77;;
7199;SDS011;3641;49.082;8.200;2024-03-23T13:17:09;2.58;;;0.70;;
7199;SDS011;3641;49.082;8.200;2024-03-23T13:19:35;3.47;;;0.85;;
7199;SDS011;3641;49.082;8.200;2024-03-23T13:22:01;3.03;;;0.73;;
7199;SDS011;3641;49.082;8.200;2024-03-23T13:24:30;5.47;;;0.88;;
7199;SDS011;3641;49.082;8.200;2024-03-23T13:26:56;1.63;;;0.60;;
7199;SDS011;3641;49.082;8.200;2024-03-23T13:29:23;3.70;;;0.80;;
7199;SDS011;3641;49.082;8.200;2024-03-23T13:31:49;2.70;;;0.73;;
7199;SDS011;3641;49.082;8.200;2024-03-23T13:34:16;3.88;;;0.80;;
7199;SDS011;3641;49.082;8.200;2024-03-23T13:36:42;2.78;;;0.85;;
7199;SDS011;3641;49.082;8.200;2024-03-23T13:39:09;3.88;;;0.75;;
7199;SDS011;3641;49.082;8.200;2024-03-23T13:41:38;2.95;;;0.50;;
7199;SDS011;3641;49.082;8.200;2024-03-23T13:44:05;2.78;;;0.63;;
7199;SDS011;3641;49.082;8.200;2024-03-23T13:46:31;2.25;;;0.70;;
7199;SDS011;3641;49.082;8.200;2024-03-23T13:48:57;7.18;;;1.15;;
7199;SDS011;3641;49.082;8.200;2024-03-23T13:51:23;3.80;;;0.90;;
7199;SDS011;3641;49.082;8.200;2024-03-23T13:53:52;1.75;;;0.85;;
7199;SDS011;3641;49.082;8.200;2024-03-23T13:56:17;3.00;;;0.70;;
7199;SDS011;3641;49.082;8.200;2024-03-23T13:58:45;2.72;;;0.80;;
7199;SDS011;3641;49.082;8.200;2024-03-23T14:01:12;3.63;;;0.80;;
7199;SDS011;3641;49.082;8.200;2024-03-23T14:03:39;4.53;;;1.13;;
7199;SDS011;3641;49.082;8.200;2024-03-23T14:06:05;6.35;;;1.15;;
7199;SDS011;3641;49.082;8.200;2024-03-23T14:08:32;2.03;;;0.88;;
7199;SDS011;3641;49.082;8.200;2024-03-23T14:11:00;2.17;;;0.77;;
7199;SDS011;3641;49.082;8.200;2024-03-23T14:13:27;4.45;;;0.68;;
7199;SDS011;3641;49.082;8.200;2024-03-23T14:15:55;2.58;;;0.90;;
7199;SDS011;3641;49.082;8.200;2024-03-23T14:18:21;3.50;;;0.80;;
7199;SDS011;3641;49.082;8.200;2024-03-23T14:20:47;1.95;;;0.80;;
7199;SDS011;3641;49.082;8.200;2024-03-23T14:23:14;2.83;;;0.73;;
7199;SDS011;3641;49.082;8.200;2024-03-23T14:25:39;3.92;;;0.93;;
7199;SDS011;3641;49.082;8.200;2024-03-23T14:28:06;1.83;;;0.75;;
7199;SDS011;3641;49.082;8.200;2024-03-23T14:30:33;3.67;;;0.88;;
7199;SDS011;3641;49.082;8.200;2024-03-23T14:33:01;3.00;;;0.95;;
7199;SDS011;3641;49.082;8.200;2024-03-23T14:35:26;3.17;;;0.85;;
7199;SDS011;3641;49.082;8.200;2024-03-23T14:37:53;5.32;;;0.70;;
7199;SDS011;3641;49.082;8.200;2024-03-23T14:40:19;3.95;;;0.88;;
7199;SDS011;3641;49.082;8.200;2024-03-23T14:42:45;3.85;;;1.00;;
7199;SDS011;3641;49.082;8.200;2024-03-23T14:45:11;3.60;;;1.00;;
7199;SDS011;3641;49.082;8.200;2024-03-23T14:47:38;3.45;;;1.13;;
7199;SDS011;3641;49.082;8.200;2024-03-23T14:50:05;3.75;;;1.10;;
7199;SDS011;3641;49.082;8.200;2024-03-23T14:52:33;8.70;;;1.40;;
7199;SDS011;3641;49.082;8.200;2024-03-23T14:54:59;4.25;;;1.02;;
7199;SDS011;3641;49.082;8.200;2024-03-23T14:57:25;3.60;;;0.90;;
7199;SDS011;3641;49.082;8.200;2024-03-23T14:59:50;2.28;;;0.93;;
7199;SDS011;3641;49.082;8.200;2024-03-23T15:02:18;8.85;;;1.00;;
7199;SDS011;3641;49.082;8.200;2024-03-23T15:04:43;3.95;;;1.00;;
7199;SDS011;3641;49.082;8.200;2024-03-23T15:07:11;4.30;;;1.40;;
7199;SDS011;3641;49.082;8.200;2024-03-23T15:09:37;3.92;;;1.50;;
7199;SDS011;3641;49.082;8.200;2024-03-23T15:12:03;7.20;;;2.83;;
7199;SDS011;3641;49.082;8.200;2024-03-23T15:14:29;3.13;;;0.95;;
7199;SDS011;3641;49.082;8.200;2024-03-23T15:16:56;3.03;;;1.00;;
7199;SDS011;3641;49.082;8.200;2024-03-23T15:19:21;5.53;;;1.50;;
7199;SDS011;3641;49.082;8.200;2024-03-23T15:21:48;4.65;;;1.42;;
7199;SDS011;3641;49.082;8.200;2024-03-23T15:24:14;3.67;;;1.25;;
7199;SDS011;3641;49.082;8.200;2024-03-23T15:26:41;4.20;;;1.10;;
7199;SDS011;3641;49.082;8.200;2024-03-23T15:29:07;4.05;;;1.00;;
7199;SDS011;3641;49.082;8.200;2024-03-23T15:31:37;3.28;;;0.82;;
7199;SDS011;3641;49.082;8.200;2024-03-23T15:34:03;3.13;;;0.85;;
7199;SDS011;3641;49.082;8.200;2024-03-23T15:36:29;3.47;;;0.80;;
7199;SDS011;3641;49.082;8.200;2024-03-23T15:38:55;5.30;;;1.30;;
7199;SDS011;3641;49.082;8.200;2024-03-23T15:41:23;4.65;;;1.08;;
7199;SDS011;3641;49.082;8.200;2024-03-23T15:43:49;4.97;;;1.33;;
7199;SDS011;3641;49.082;8.200;2024-03-23T15:46:16;3.17;;;0.80;;
7199;SDS011;3641;49.082;8.200;2024-03-23T15:48:42;3.00;;;0.90;;
7199;SDS011;3641;49.082;8.200;2024-03-23T15:51:11;1.45;;;0.63;;
7199;SDS011;3641;49.082;8.200;2024-03-23T15:53:37;4.13;;;1.02;;
7199;SDS011;3641;49.082;8.200;2024-03-23T15:56:35;4.38;;;0.95;;
7199;SDS011;3641;49.082;8.200;2024-03-23T15:58:56;4.40;;;1.35;;
7199;SDS011;3641;49.082;8.200;2024-03-23T16:01:33;3.75;;;0.85;;
7199;SDS011;3641;49.082;8.200;2024-03-23T16:04:00;2.83;;;0.80;;
7199;SDS011;3641;49.082;8.200;2024-03-23T16:06:25;3.28;;;1.20;;